createdAt,value
2018-09-20T00:01:18.004Z,10.83
2018-09-20T00:06:12.457Z,12.83
2018-09-20T00:11:07.380Z,11.67
2018-09-20T00:16:01.801Z,11.43
2018-09-20T00:20:56.257Z,10.77
2018-09-20T00:25:50.677Z,10.77
2018-09-20T00:30:45.084Z,10.90
2018-09-20T00:35:39.564Z,11.77
2018-09-20T00:40:34.002Z,11.63
2018-09-20T00:45:28.427Z,11.80
2018-09-20T00:50:22.900Z,11.27
2018-09-20T00:55:17.340Z,12.80
2018-09-20T01:00:11.869Z,12.33
2018-09-20T01:05:06.635Z,11.70
2018-09-20T01:10:01.085Z,10.33
2018-09-20T01:14:55.557Z,11.13
2018-09-20T01:19:50.017Z,11.10
2018-09-20T01:24:44.499Z,12.20
2018-09-20T01:29:38.932Z,11.40
2018-09-20T01:34:33.404Z,12.03
2018-09-20T01:39:27.849Z,10.33
2018-09-20T01:44:22.293Z,11.97
2018-09-20T01:49:16.728Z,10.93
2018-09-20T01:54:11.160Z,13.13
2018-09-20T01:59:05.628Z,15.83
2018-09-20T02:04:00.113Z,14.00
2018-09-20T02:08:54.636Z,13.00
2018-09-20T02:13:49.080Z,11.43
2018-09-20T02:18:43.563Z,12.33
2018-09-20T02:23:38.020Z,14.20
2018-09-20T02:28:32.444Z,15.97
2018-09-20T02:33:26.976Z,17.03
2018-09-20T02:38:21.448Z,19.67
2018-09-20T02:43:15.934Z,21.63
2018-09-20T02:48:10.365Z,17.43
2018-09-20T02:53:05.004Z,14.37
2018-09-20T02:57:59.699Z,16.20
2018-09-20T03:02:54.156Z,15.40
2018-09-20T03:07:48.608Z,14.73
2018-09-20T03:12:43.087Z,14.17
2018-09-20T03:17:37.563Z,18.60
2018-09-20T03:22:32.017Z,14.97
2018-09-20T03:27:26.512Z,17.00
2018-09-20T03:32:20.936Z,16.23
2018-09-20T03:37:15.406Z,16.77
2018-09-20T03:42:09.944Z,19.20
2018-09-20T03:47:04.412Z,20.60
2018-09-20T03:51:58.901Z,17.40
2018-09-20T03:56:53.514Z,16.00
2018-09-20T04:01:48.004Z,16.27
2018-09-20T04:06:42.560Z,17.20
2018-09-20T04:11:37.129Z,18.50
2018-09-20T04:16:31.648Z,24.43
2018-09-20T04:21:34.610Z,17.77
2018-09-20T04:26:29.696Z,18.70
2018-09-20T04:31:24.531Z,20.80
2018-09-20T04:36:19.001Z,20.70
2018-09-20T04:41:13.560Z,21.40
2018-09-20T04:46:08.128Z,16.33
2018-09-20T04:51:02.760Z,19.20
2018-09-20T04:55:57.341Z,17.50
2018-09-20T05:00:52.026Z,18.07
2018-09-20T05:05:46.488Z,18.57
2018-09-20T05:10:41.008Z,18.47
2018-09-20T05:15:35.672Z,16.03
2018-09-20T05:20:30.199Z,18.87
2018-09-20T05:25:24.693Z,19.00
2018-09-20T05:30:19.257Z,16.60
2018-09-20T05:35:13.850Z,14.10
2018-09-20T05:40:08.437Z,14.10
2018-09-20T05:45:03.012Z,19.47
2018-09-20T05:49:57.546Z,30.43
2018-09-20T05:54:52.403Z,37.63
2018-09-20T05:59:58.593Z,52.03
2018-09-20T06:05:03.371Z,49.80
2018-09-20T06:09:58.226Z,30.83
2018-09-20T06:14:52.896Z,36.93
2018-09-20T06:19:48.548Z,40.40
2018-09-20T06:24:53.411Z,30.17
2018-09-20T06:29:56.739Z,30.57
2018-09-20T06:34:53.042Z,29.57
2018-09-20T06:39:48.639Z,30.70
2018-09-20T06:44:43.248Z,30.27
2018-09-20T06:49:37.873Z,24.40
2018-09-20T06:54:32.418Z,29.03
2018-09-20T06:59:27.105Z,33.70
2018-09-20T07:04:21.665Z,28.17
2018-09-20T07:09:16.316Z,28.50
2018-09-20T07:14:10.841Z,26.93
2018-09-20T07:19:05.459Z,25.80
2018-09-20T07:23:59.864Z,23.60
2018-09-20T07:28:54.718Z,26.83
2018-09-20T07:33:49.495Z,22.60
2018-09-20T07:38:47.801Z,33.60
2018-09-20T07:44:04.024Z,23.97
2018-09-20T07:49:19.795Z,24.33
2018-09-20T07:54:34.560Z,22.13
2018-09-20T07:59:53.630Z,26.43
2018-09-20T08:05:12.719Z,33.03
2018-09-20T08:10:28.102Z,28.45
2018-09-20T08:15:22.809Z,26.95
2018-09-20T08:20:38.125Z,28.60
2018-09-20T08:25:49.098Z,26.93
2018-09-20T08:30:52.783Z,31.00
2018-09-20T08:36:03.963Z,23.18
2018-09-20T08:41:18.988Z,19.70
2018-09-20T08:46:14.627Z,20.23
2018-09-20T08:51:31.134Z,15.70
2018-09-20T08:56:38.015Z,17.67
2018-09-20T09:01:32.680Z,16.85
2018-09-20T09:06:27.808Z,18.92
2018-09-20T09:11:23.243Z,14.13
2018-09-20T09:16:18.726Z,14.47
2018-09-20T09:21:13.329Z,12.25
2018-09-20T09:26:09.173Z,14.40
2018-09-20T09:31:04.194Z,15.95
2018-09-20T09:35:59.099Z,16.82
2018-09-20T09:40:55.132Z,16.97
2018-09-20T09:45:50.117Z,18.50
2018-09-20T09:50:45.109Z,17.20
2018-09-20T09:55:39.784Z,15.78
2018-09-20T10:00:36.549Z,16.02
2018-09-20T10:05:31.769Z,13.62
2018-09-20T10:10:26.581Z,11.60
2018-09-20T10:15:21.461Z,12.88
2018-09-20T10:20:16.539Z,17.92
2018-09-20T10:25:11.509Z,12.78
2018-09-20T10:30:07.162Z,17.92
2018-09-20T10:35:01.932Z,13.13
2018-09-20T10:39:56.893Z,15.95
2018-09-20T10:44:52.583Z,16.45
2018-09-20T10:49:47.308Z,13.93
2018-09-20T10:54:54.408Z,16.27
2018-09-20T11:00:10.317Z,14.20
2018-09-20T11:05:11.317Z,15.83
2018-09-20T11:10:07.306Z,14.33
2018-09-20T11:15:02.377Z,15.48
2018-09-20T11:19:58.776Z,12.93
2018-09-20T11:24:54.810Z,13.18
2018-09-20T11:29:49.630Z,15.68
2018-09-20T11:35:22.131Z,22.20
2018-09-20T11:40:17.248Z,13.20
2018-09-20T11:45:12.012Z,17.30
2018-09-20T11:50:07.545Z,13.43
2018-09-20T11:55:02.893Z,16.40
2018-09-20T11:59:57.737Z,19.92
2018-09-20T12:04:52.321Z,18.65
2018-09-20T12:09:46.834Z,14.58
2018-09-20T12:14:41.993Z,17.50
2018-09-20T12:19:38.418Z,13.70
2018-09-20T12:24:33.221Z,16.73
2018-09-20T12:29:27.777Z,14.13
2018-09-20T12:34:22.351Z,16.97
2018-09-20T12:39:17.107Z,14.15
2018-09-20T12:44:11.645Z,13.55
2018-09-20T12:49:06.349Z,13.15
2018-09-20T12:54:00.853Z,11.43
2018-09-20T12:58:55.630Z,18.95
2018-09-20T13:03:51.808Z,13.40
2018-09-20T13:08:46.860Z,11.08
2018-09-20T13:13:42.257Z,15.13
2018-09-20T13:18:36.795Z,13.70
2018-09-20T13:23:31.216Z,9.50
2018-09-20T13:28:25.880Z,9.25
2018-09-20T13:33:20.304Z,9.38
2018-09-20T13:38:14.784Z,9.25
2018-09-20T13:43:09.236Z,12.07
2018-09-20T13:48:03.633Z,8.50
2018-09-20T13:52:58.101Z,9.43
2018-09-20T13:57:52.632Z,7.67
2018-09-20T14:02:47.692Z,9.53
2018-09-20T14:07:42.288Z,9.78
2018-09-20T14:12:36.718Z,13.15
2018-09-20T14:17:31.929Z,8.20
2018-09-20T14:22:26.382Z,9.08
2018-09-20T14:27:23.041Z,8.33
2018-09-20T14:32:17.540Z,9.83
2018-09-20T14:37:12.390Z,8.08
2018-09-20T14:42:07.160Z,6.33
2018-09-20T14:47:01.628Z,8.50
2018-09-20T14:51:56.389Z,8.68
2018-09-20T14:56:51.010Z,10.82
2018-09-20T15:01:45.503Z,6.20
2018-09-20T15:06:40.783Z,7.33
2018-09-20T15:11:35.810Z,9.13
2018-09-20T15:16:30.486Z,5.97
2018-09-20T15:21:24.996Z,5.47
2018-09-20T15:26:20.356Z,5.17
2018-09-20T15:31:14.922Z,6.17
2018-09-20T15:36:10.364Z,4.45
2018-09-20T15:41:04.833Z,6.17
2018-09-20T15:45:59.661Z,4.58
2018-09-20T15:50:54.801Z,4.67
2018-09-20T15:55:50.122Z,4.60
2018-09-20T16:00:45.053Z,7.67
2018-09-20T16:05:40.206Z,8.35
2018-09-20T16:10:34.837Z,8.50
2018-09-20T16:15:29.735Z,5.30
2018-09-20T16:20:24.344Z,4.30
2018-09-20T16:25:19.025Z,3.92
2018-09-20T16:30:41.243Z,4.95
2018-09-20T16:35:49.471Z,5.22
2018-09-20T16:40:47.178Z,6.62
2018-09-20T16:45:42.279Z,5.28
2018-09-20T16:50:37.624Z,4.85
2018-09-20T16:55:32.588Z,5.25
2018-09-20T17:00:27.502Z,9.23
2018-09-20T17:05:24.930Z,9.63
2018-09-20T17:10:21.116Z,9.88
2018-09-20T17:15:15.797Z,6.53
2018-09-20T17:20:10.769Z,12.78
2018-09-20T17:25:05.525Z,10.35
2018-09-20T17:30:00.077Z,16.27
2018-09-20T17:34:55.258Z,7.35
2018-09-20T17:39:52.542Z,7.53
2018-09-20T17:44:47.118Z,5.92
2018-09-20T17:49:41.672Z,18.95
2018-09-20T17:54:36.904Z,8.20
2018-09-20T17:59:31.409Z,11.73
2018-09-20T18:04:26.037Z,9.15
2018-09-20T18:09:20.605Z,8.50
2018-09-20T18:14:15.225Z,10.20
2018-09-20T18:19:09.828Z,12.25
2018-09-20T18:24:05.549Z,7.35
2018-09-20T18:29:00.028Z,8.80
2018-09-20T18:33:55.884Z,6.70
2018-09-20T18:38:50.421Z,8.10
2018-09-20T18:43:45.249Z,6.45
2018-09-20T18:48:39.802Z,8.50
2018-09-20T18:53:34.421Z,8.17
2018-09-20T18:58:28.962Z,9.43
2018-09-20T19:03:24.665Z,8.70
2018-09-20T19:08:19.838Z,8.97
2018-09-20T19:13:15.829Z,10.30
2018-09-20T19:18:10.718Z,11.17
2018-09-20T19:23:05.283Z,10.17
2018-09-20T19:27:59.964Z,10.80
2018-09-20T19:32:54.842Z,12.00
2018-09-20T19:37:49.377Z,8.93
2018-09-20T19:42:43.954Z,9.90
2018-09-20T19:47:38.500Z,9.93
2018-09-20T19:52:33.073Z,15.97
2018-09-20T19:57:27.838Z,11.67
2018-09-20T20:02:22.397Z,9.30
2018-09-20T20:07:16.975Z,10.07
2018-09-20T20:12:11.581Z,9.70
2018-09-20T20:17:07.040Z,9.23
2018-09-20T20:22:01.745Z,9.93
2018-09-20T20:26:56.431Z,9.17
2018-09-20T20:31:51.420Z,9.37
2018-09-20T20:36:46.296Z,11.17
2018-09-20T20:41:41.160Z,10.77
2018-09-20T20:46:35.910Z,10.80
2018-09-20T20:51:30.669Z,9.13
2018-09-20T20:56:26.249Z,11.77
2018-09-20T21:01:21.805Z,13.80
2018-09-20T21:06:17.429Z,12.43
2018-09-20T21:11:12.000Z,10.97
2018-09-20T21:16:06.775Z,10.73
2018-09-20T21:21:01.299Z,10.53
2018-09-20T21:25:55.892Z,13.47
2018-09-20T21:30:50.519Z,13.40
2018-09-20T21:35:45.043Z,8.93
2018-09-20T21:40:39.555Z,8.57
2018-09-20T21:45:34.093Z,8.00
2018-09-20T21:50:28.649Z,9.10
2018-09-20T21:55:23.197Z,10.53
2018-09-20T22:00:17.917Z,11.97
2018-09-20T22:05:12.666Z,10.20
2018-09-20T22:10:07.284Z,12.37
2018-09-20T22:15:01.901Z,10.93
2018-09-20T22:19:56.471Z,11.60
2018-09-20T22:24:50.978Z,11.17
2018-09-20T22:29:45.777Z,9.97
2018-09-20T22:34:40.370Z,9.47
2018-09-20T22:39:35.276Z,10.80
2018-09-20T22:44:29.802Z,12.20
2018-09-20T22:49:24.329Z,11.50
2018-09-20T22:54:18.918Z,12.80
2018-09-20T22:59:13.449Z,9.37
2018-09-20T23:04:08.009Z,10.30
2018-09-20T23:09:02.557Z,10.00
2018-09-20T23:13:57.144Z,9.83
2018-09-20T23:18:51.809Z,9.90
2018-09-20T23:23:46.313Z,11.30
2018-09-20T23:28:40.800Z,11.47
2018-09-20T23:33:35.320Z,10.83
2018-09-20T23:38:29.996Z,10.93
2018-09-20T23:43:24.636Z,8.53
2018-09-20T23:48:19.236Z,9.47
2018-09-20T23:53:13.665Z,10.37
2018-09-20T23:58:08.261Z,10.63
